sensor_id;sensor_type;location;lat;lon;timestamp;P1;durP1;ratioP1;P2;durP2;ratioP2
58669;SDS011;44439;47.924;10.198;2022-11-21T00:02:32;0.60;;;0.60;;
58669;SDS011;44439;47.924;10.198;2022-11-21T00:05:18;1.38;;;0.70;;
58669;SDS011;44439;47.924;10.198;2022-11-21T00:08:04;0.80;;;0.52;;
58669;SDS011;44439;47.924;10.198;2022-11-21T00:10:49;0.77;;;0.50;;
58669;SDS011;44439;47.924;10.198;2022-11-21T00:13:35;0.50;;;0.50;;
58669;SDS011;44439;47.924;10.198;2022-11-21T00:16:21;0.63;;;0.45;;
58669;SDS011;44439;47.924;10.198;2022-11-21T00:19:07;0.60;;;0.45;;
58669;SDS011;44439;47.924;10.198;2022-11-21T00:21:53;0.73;;;0.50;;
58669;SDS011;44439;47.924;10.198;2022-11-21T00:24:39;1.13;;;0.55;;
58669;SDS011;44439;47.924;10.198;2022-11-21T00:27:25;1.05;;;0.50;;
58669;SDS011;44439;47.924;10.198;2022-11-21T00:30:10;0.60;;;0.50;;
58669;SDS011;44439;47.924;10.198;2022-11-21T00:32:57;1.27;;;0.70;;
58669;SDS011;44439;47.924;10.198;2022-11-21T00:35:43;2.25;;;0.50;;
58669;SDS011;44439;47.924;10.198;2022-11-21T00:38:28;1.10;;;0.70;;
58669;SDS011;44439;47.924;10.198;2022-11-21T00:41:14;1.40;;;0.70;;
58669;SDS011;44439;47.924;10.198;2022-11-21T00:44:00;1.90;;;0.70;;
58669;SDS011;44439;47.924;10.198;2022-11-21T00:46:45;0.68;;;0.47;;
58669;SDS011;44439;47.924;10.198;2022-11-21T00:49:31;1.30;;;0.60;;
58669;SDS011;44439;47.924;10.198;2022-11-21T00:52:17;0.68;;;0.60;;
58669;SDS011;44439;47.924;10.198;2022-11-21T00:55:03;0.60;;;0.55;;
58669;SDS011;44439;47.924;10.198;2022-11-21T00:57:49;1.23;;;0.60;;
58669;SDS011;44439;47.924;10.198;2022-11-21T01:00:35;1.17;;;0.60;;
58669;SDS011;44439;47.924;10.198;2022-11-21T01:03:20;1.13;;;0.60;;
58669;SDS011;44439;47.924;10.198;2022-11-21T01:06:10;2.15;;;0.55;;
58669;SDS011;44439;47.924;10.198;2022-11-21T01:11:43;1.73;;;0.68;;
58669;SDS011;44439;47.924;10.198;2022-11-21T01:14:28;1.83;;;0.70;;
58669;SDS011;44439;47.924;10.198;2022-11-21T01:17:14;2.25;;;0.65;;
58669;SDS011;44439;47.924;10.198;2022-11-21T01:20:00;1.73;;;0.75;;
58669;SDS011;44439;47.924;10.198;2022-11-21T01:22:45;1.42;;;0.80;;
58669;SDS011;44439;47.924;10.198;2022-11-21T01:25:34;1.38;;;0.65;;
58669;SDS011;44439;47.924;10.198;2022-11-21T01:28:20;2.08;;;0.50;;
58669;SDS011;44439;47.924;10.198;2022-11-21T01:31:07;2.00;;;0.80;;
58669;SDS011;44439;47.924;10.198;2022-11-21T01:33:58;1.48;;;0.70;;
58669;SDS011;44439;47.924;10.198;2022-11-21T01:36:44;1.67;;;0.80;;
58669;SDS011;44439;47.924;10.198;2022-11-21T01:39:30;1.70;;;0.60;;
58669;SDS011;44439;47.924;10.198;2022-11-21T01:42:15;2.33;;;0.80;;
58669;SDS011;44439;47.924;10.198;2022-11-21T01:45:01;1.42;;;0.68;;
58669;SDS011;44439;47.924;10.198;2022-11-21T01:47:47;1.15;;;0.50;;
58669;SDS011;44439;47.924;10.198;2022-11-21T01:50:32;2.72;;;0.70;;
58669;SDS011;44439;47.924;10.198;2022-11-21T01:53:18;1.25;;;0.70;;
58669;SDS011;44439;47.924;10.198;2022-11-21T01:56:04;3.65;;;0.75;;
58669;SDS011;44439;47.924;10.198;2022-11-21T01:58:51;2.60;;;0.90;;
58669;SDS011;44439;47.924;10.198;2022-11-21T02:01:37;2.55;;;0.75;;
58669;SDS011;44439;47.924;10.198;2022-11-21T02:04:24;1.20;;;0.57;;
58669;SDS011;44439;47.924;10.198;2022-11-21T02:07:11;2.78;;;1.10;;
58669;SDS011;44439;47.924;10.198;2022-11-21T02:09:58;1.25;;;0.80;;
58669;SDS011;44439;47.924;10.198;2022-11-21T02:12:47;2.63;;;0.93;;
58669;SDS011;44439;47.924;10.198;2022-11-21T02:15:34;1.20;;;0.88;;
58669;SDS011;44439;47.924;10.198;2022-11-21T02:18:20;2.67;;;0.70;;
58669;SDS011;44439;47.924;10.198;2022-11-21T02:21:11;1.40;;;0.70;;
58669;SDS011;44439;47.924;10.198;2022-11-21T02:24:02;3.20;;;0.95;;
58669;SDS011;44439;47.924;10.198;2022-11-21T02:27:04;2.90;;;0.80;;
58669;SDS011;44439;47.924;10.198;2022-11-21T02:29:49;2.15;;;0.80;;
58669;SDS011;44439;47.924;10.198;2022-11-21T02:32:36;2.05;;;0.73;;
58669;SDS011;44439;47.924;10.198;2022-11-21T02:35:24;1.98;;;0.70;;
58669;SDS011;44439;47.924;10.198;2022-11-21T02:38:17;2.05;;;0.77;;
58669;SDS011;44439;47.924;10.198;2022-11-21T02:41:10;1.40;;;0.70;;
58669;SDS011;44439;47.924;10.198;2022-11-21T02:44:11;1.85;;;1.10;;
58669;SDS011;44439;47.924;10.198;2022-11-21T02:47:04;2.35;;;0.93;;
58669;SDS011;44439;47.924;10.198;2022-11-21T02:49:53;3.20;;;0.73;;
58669;SDS011;44439;47.924;10.198;2022-11-21T02:52:46;3.60;;;0.80;;
58669;SDS011;44439;47.924;10.198;2022-11-21T02:55:33;3.55;;;0.82;;
58669;SDS011;44439;47.924;10.198;2022-11-21T02:58:18;2.45;;;0.90;;
58669;SDS011;44439;47.924;10.198;2022-11-21T03:01:04;2.22;;;0.88;;
58669;SDS011;44439;47.924;10.198;2022-11-21T03:03:50;5.20;;;0.80;;
58669;SDS011;44439;47.924;10.198;2022-11-21T03:06:35;1.25;;;0.82;;
58669;SDS011;44439;47.924;10.198;2022-11-21T03:09:21;3.10;;;0.70;;
58669;SDS011;44439;47.924;10.198;2022-11-21T03:12:09;2.38;;;0.60;;
58669;SDS011;44439;47.924;10.198;2022-11-21T03:14:56;2.03;;;0.50;;
58669;SDS011;44439;47.924;10.198;2022-11-21T03:17:42;2.97;;;0.80;;
58669;SDS011;44439;47.924;10.198;2022-11-21T03:20:28;1.77;;;0.73;;
58669;SDS011;44439;47.924;10.198;2022-11-21T03:23:15;0.75;;;0.60;;
58669;SDS011;44439;47.924;10.198;2022-11-21T03:26:01;1.80;;;0.70;;
58669;SDS011;44439;47.924;10.198;2022-11-21T03:28:46;1.20;;;0.70;;
58669;SDS011;44439;47.924;10.198;2022-11-21T03:31:32;1.70;;;0.80;;
58669;SDS011;44439;47.924;10.198;2022-11-21T03:34:18;3.60;;;0.80;;
58669;SDS011;44439;47.924;10.198;2022-11-21T03:37:04;1.73;;;0.70;;
58669;SDS011;44439;47.924;10.198;2022-11-21T03:39:49;2.25;;;0.70;;
58669;SDS011;44439;47.924;10.198;2022-11-21T03:42:35;2.15;;;0.82;;
58669;SDS011;44439;47.924;10.198;2022-11-21T03:45:21;1.38;;;0.70;;
58669;SDS011;44439;47.924;10.198;2022-11-21T03:48:06;1.40;;;0.52;;
58669;SDS011;44439;47.924;10.198;2022-11-21T03:50:52;2.42;;;0.40;;
58669;SDS011;44439;47.924;10.198;2022-11-21T03:53:38;1.17;;;0.50;;
58669;SDS011;44439;47.924;10.198;2022-11-21T03:56:24;1.13;;;0.50;;
58669;SDS011;44439;47.924;10.198;2022-11-21T03:59:09;2.88;;;0.65;;
58669;SDS011;44439;47.924;10.198;2022-11-21T04:01:55;1.42;;;0.50;;
58669;SDS011;44439;47.924;10.198;2022-11-21T04:04:41;1.63;;;0.50;;
58669;SDS011;44439;47.924;10.198;2022-11-21T04:07:26;1.27;;;0.50;;
58669;SDS011;44439;47.924;10.198;2022-11-21T04:10:14;0.45;;;0.38;;
58669;SDS011;44439;47.924;10.198;2022-11-21T04:12:59;0.90;;;0.52;;
58669;SDS011;44439;47.924;10.198;2022-11-21T04:15:45;0.98;;;0.50;;
58669;SDS011;44439;47.924;10.198;2022-11-21T04:18:32;1.00;;;0.60;;
58669;SDS011;44439;47.924;10.198;2022-11-21T04:21:18;3.60;;;0.70;;
58669;SDS011;44439;47.924;10.198;2022-11-21T04:24:04;1.30;;;0.60;;
58669;SDS011;44439;47.924;10.198;2022-11-21T04:26:50;1.92;;;0.63;;
58669;SDS011;44439;47.924;10.198;2022-11-21T04:29:36;0.77;;;0.60;;
58669;SDS011;44439;47.924;10.198;2022-11-21T04:32:21;1.10;;;0.70;;
58669;SDS011;44439;47.924;10.198;2022-11-21T04:35:07;2.35;;;0.50;;
58669;SDS011;44439;47.924;10.198;2022-11-21T04:37:53;1.20;;;0.60;;
58669;SDS011;44439;47.924;10.198;2022-11-21T04:40:39;3.65;;;0.85;;
58669;SDS011;44439;47.924;10.198;2022-11-21T04:43:25;2.25;;;0.57;;
58669;SDS011;44439;47.924;10.198;2022-11-21T04:46:10;1.38;;;0.50;;
58669;SDS011;44439;47.924;10.198;2022-11-21T04:48:56;0.95;;;0.52;;
58669;SDS011;44439;47.924;10.198;2022-11-21T04:51:42;0.82;;;0.43;;
58669;SDS011;44439;47.924;10.198;2022-11-21T04:54:27;3.80;;;1.55;;
58669;SDS011;44439;47.924;10.198;2022-11-21T04:57:13;2.33;;;0.68;;
58669;SDS011;44439;47.924;10.198;2022-11-21T04:59:59;1.65;;;0.40;;
58669;SDS011;44439;47.924;10.198;2022-11-21T05:02:44;0.98;;;0.50;;
58669;SDS011;44439;47.924;10.198;2022-11-21T05:05:37;0.68;;;0.47;;
58669;SDS011;44439;47.924;10.198;2022-11-21T05:08:29;0.70;;;0.30;;
58669;SDS011;44439;47.924;10.198;2022-11-21T05:11:14;1.20;;;0.30;;
58669;SDS011;44439;47.924;10.198;2022-11-21T05:14:19;0.22;;;0.22;;
58669;SDS011;44439;47.924;10.198;2022-11-21T05:17:04;2.10;;;0.57;;
58669;SDS011;44439;47.924;10.198;2022-11-21T05:19:50;0.85;;;0.40;;
58669;SDS011;44439;47.924;10.198;2022-11-21T05:22:36;0.30;;;0.30;;
58669;SDS011;44439;47.924;10.198;2022-11-21T05:25:21;0.55;;;0.43;;
58669;SDS011;44439;47.924;10.198;2022-11-21T05:28:07;1.27;;;0.50;;
58669;SDS011;44439;47.924;10.198;2022-11-21T05:30:53;0.90;;;0.47;;
58669;SDS011;44439;47.924;10.198;2022-11-21T05:33:39;1.00;;;0.50;;
58669;SDS011;44439;47.924;10.198;2022-11-21T05:36:24;2.33;;;0.60;;
58669;SDS011;44439;47.924;10.198;2022-11-21T05:39:10;1.42;;;0.55;;
58669;SDS011;44439;47.924;10.198;2022-11-21T05:41:56;2.17;;;0.47;;
58669;SDS011;44439;47.924;10.198;2022-11-21T05:44:41;0.60;;;0.30;;
58669;SDS011;44439;47.924;10.198;2022-11-21T05:47:27;1.80;;;0.60;;
58669;SDS011;44439;47.924;10.198;2022-11-21T05:50:13;1.55;;;0.50;;
58669;SDS011;44439;47.924;10.198;2022-11-21T05:53:02;0.98;;;0.50;;
58669;SDS011;44439;47.924;10.198;2022-11-21T05:55:48;1.77;;;0.55;;
58669;SDS011;44439;47.924;10.198;2022-11-21T05:58:34;0.57;;;0.30;;
58669;SDS011;44439;47.924;10.198;2022-11-21T06:01:20;0.93;;;0.40;;
58669;SDS011;44439;47.924;10.198;2022-11-21T06:04:24;5.60;;;3.10;;
58669;SDS011;44439;47.924;10.198;2022-11-21T06:07:10;2.20;;;0.70;;
58669;SDS011;44439;47.924;10.198;2022-11-21T06:09:56;1.00;;;0.40;;
58669;SDS011;44439;47.924;10.198;2022-11-21T06:12:41;1.92;;;0.70;;
58669;SDS011;44439;47.924;10.198;2022-11-21T06:15:27;0.80;;;0.57;;
58669;SDS011;44439;47.924;10.198;2022-11-21T06:18:14;0.35;;;0.30;;
58669;SDS011;44439;47.924;10.198;2022-11-21T06:21:22;0.52;;;0.50;;
58669;SDS011;44439;47.924;10.198;2022-11-21T06:24:07;0.63;;;0.40;;
58669;SDS011;44439;47.924;10.198;2022-11-21T06:26:52;0.30;;;0.20;;
58669;SDS011;44439;47.924;10.198;2022-11-21T06:29:38;1.08;;;0.65;;
58669;SDS011;44439;47.924;10.198;2022-11-21T06:32:24;0.95;;;0.70;;
58669;SDS011;44439;47.924;10.198;2022-11-21T06:35:09;1.90;;;0.43;;
58669;SDS011;44439;47.924;10.198;2022-11-21T06:37:56;1.55;;;0.40;;
58669;SDS011;44439;47.924;10.198;2022-11-21T06:40:42;1.40;;;0.47;;
58669;SDS011;44439;47.924;10.198;2022-11-21T06:43:28;2.28;;;0.47;;
58669;SDS011;44439;47.924;10.198;2022-11-21T06:46:14;1.73;;;0.55;;
58669;SDS011;44439;47.924;10.198;2022-11-21T06:49:00;0.90;;;0.45;;
58669;SDS011;44439;47.924;10.198;2022-11-21T06:51:46;0.90;;;0.52;;
58669;SDS011;44439;47.924;10.198;2022-11-21T06:54:31;2.60;;;0.57;;
58669;SDS011;44439;47.924;10.198;2022-11-21T06:57:17;2.10;;;0.52;;
58669;SDS011;44439;47.924;10.198;2022-11-21T07:00:03;1.35;;;0.50;;
58669;SDS011;44439;47.924;10.198;2022-11-21T07:02:49;2.50;;;0.47;;
58669;SDS011;44439;47.924;10.198;2022-11-21T07:05:35;0.77;;;0.40;;
58669;SDS011;44439;47.924;10.198;2022-11-21T07:08:20;1.33;;;0.98;;
58669;SDS011;44439;47.924;10.198;2022-11-21T07:11:07;1.13;;;0.60;;
58669;SDS011;44439;47.924;10.198;2022-11-21T07:13:58;2.78;;;0.70;;
58669;SDS011;44439;47.924;10.198;2022-11-21T07:16:43;1.85;;;0.68;;
58669;SDS011;44439;47.924;10.198;2022-11-21T07:19:29;1.85;;;0.50;;
58669;SDS011;44439;47.924;10.198;2022-11-21T07:22:15;1.70;;;0.50;;
58669;SDS011;44439;47.924;10.198;2022-11-21T07:25:00;2.30;;;0.60;;
58669;SDS011;44439;47.924;10.198;2022-11-21T07:27:46;0.93;;;0.63;;
58669;SDS011;44439;47.924;10.198;2022-11-21T07:30:32;1.10;;;0.40;;
58669;SDS011;44439;47.924;10.198;2022-11-21T07:33:18;2.22;;;0.43;;
58669;SDS011;44439;47.924;10.198;2022-11-21T07:36:03;1.27;;;0.50;;
58669;SDS011;44439;47.924;10.198;2022-11-21T07:38:49;1.30;;;0.50;;
58669;SDS011;44439;47.924;10.198;2022-11-21T07:41:35;1.95;;;0.77;;
58669;SDS011;44439;47.924;10.198;2022-11-21T07:44:21;2.78;;;0.90;;
58669;SDS011;44439;47.924;10.198;2022-11-21T07:47:06;2.50;;;0.90;;
58669;SDS011;44439;47.924;10.198;2022-11-21T07:49:52;1.30;;;0.70;;
58669;SDS011;44439;47.924;10.198;2022-11-21T07:52:38;1.27;;;1.05;;
58669;SDS011;44439;47.924;10.198;2022-11-21T07:55:24;0.88;;;0.50;;
58669;SDS011;44439;47.924;10.198;2022-11-21T07:58:11;1.83;;;0.57;;
58669;SDS011;44439;47.924;10.198;2022-11-21T08:00:57;1.02;;;0.60;;
58669;SDS011;44439;47.924;10.198;2022-11-21T08:03:43;1.70;;;0.50;;
58669;SDS011;44439;47.924;10.198;2022-11-21T08:06:29;1.73;;;0.73;;
58669;SDS011;44439;47.924;10.198;2022-11-21T08:09:14;1.02;;;0.60;;
58669;SDS011;44439;47.924;10.198;2022-11-21T08:12:00;3.90;;;0.63;;
58669;SDS011;44439;47.924;10.198;2022-11-21T08:14:46;1.58;;;0.52;;
58669;SDS011;44439;47.924;10.198;2022-11-21T08:17:31;1.05;;;0.50;;
58669;SDS011;44439;47.924;10.198;2022-11-21T08:20:17;1.48;;;0.70;;
58669;SDS011;44439;47.924;10.198;2022-11-21T08:23:03;1.42;;;0.70;;
58669;SDS011;44439;47.924;10.198;2022-11-21T08:25:50;1.90;;;0.60;;
58669;SDS011;44439;47.924;10.198;2022-11-21T08:28:36;2.58;;;0.57;;
58669;SDS011;44439;47.924;10.198;2022-11-21T08:31:21;2.08;;;0.50;;
58669;SDS011;44439;47.924;10.198;2022-11-21T08:34:07;1.85;;;0.57;;
58669;SDS011;44439;47.924;10.198;2022-11-21T08:36:53;3.47;;;1.00;;
58669;SDS011;44439;47.924;10.198;2022-11-21T08:39:39;1.05;;;0.68;;
58669;SDS011;44439;47.924;10.198;2022-11-21T08:42:24;1.52;;;0.75;;
58669;SDS011;44439;47.924;10.198;2022-11-21T08:45:10;2.47;;;0.88;;
58669;SDS011;44439;47.924;10.198;2022-11-21T08:47:56;1.77;;;0.88;;
58669;SDS011;44439;47.924;10.198;2022-11-21T08:50:41;2.28;;;0.85;;
58669;SDS011;44439;47.924;10.198;2022-11-21T08:53:27;3.08;;;1.00;;
58669;SDS011;44439;47.924;10.198;2022-11-21T08:56:13;1.63;;;0.68;;
58669;SDS011;44439;47.924;10.198;2022-11-21T08:58:58;0.80;;;0.60;;
58669;SDS011;44439;47.924;10.198;2022-11-21T09:01:44;1.75;;;0.70;;
58669;SDS011;44439;47.924;10.198;2022-11-21T09:04:30;3.13;;;0.70;;
58669;SDS011;44439;47.924;10.198;2022-11-21T09:07:16;4.10;;;0.98;;
58669;SDS011;44439;47.924;10.198;2022-11-21T09:10:02;3.45;;;0.90;;
58669;SDS011;44439;47.924;10.198;2022-11-21T09:12:47;2.15;;;0.85;;
58669;SDS011;44439;47.924;10.198;2022-11-21T09:15:33;2.38;;;0.73;;
58669;SDS011;44439;47.924;10.198;2022-11-21T09:18:37;1.70;;;0.73;;
58669;SDS011;44439;47.924;10.198;2022-11-21T09:21:23;1.40;;;0.60;;
58669;SDS011;44439;47.924;10.198;2022-11-21T09:24:09;2.72;;;0.60;;
58669;SDS011;44439;47.924;10.198;2022-11-21T09:26:54;3.55;;;0.80;;
58669;SDS011;44439;47.924;10.198;2022-11-21T09:29:40;1.30;;;0.50;;
58669;SDS011;44439;47.924;10.198;2022-11-21T09:32:26;1.58;;;0.65;;
58669;SDS011;44439;47.924;10.198;2022-11-21T09:35:13;0.85;;;0.50;;
58669;SDS011;44439;47.924;10.198;2022-11-21T09:37:58;1.20;;;0.40;;
58669;SDS011;44439;47.924;10.198;2022-11-21T09:40:45;1.35;;;0.60;;
58669;SDS011;44439;47.924;10.198;2022-11-21T09:43:35;2.83;;;0.50;;
58669;SDS011;44439;47.924;10.198;2022-11-21T09:46:28;3.15;;;1.58;;
58669;SDS011;44439;47.924;10.198;2022-11-21T09:49:20;2.13;;;1.00;;
58669;SDS011;44439;47.924;10.198;2022-11-21T09:52:07;1.08;;;0.60;;
58669;SDS011;44439;47.924;10.198;2022-11-21T09:54:57;0.98;;;0.60;;
58669;SDS011;44439;47.924;10.198;2022-11-21T10:00:31;3.97;;;0.93;;
58669;SDS011;44439;47.924;10.198;2022-11-21T10:03:17;1.55;;;0.50;;
58669;SDS011;44439;47.924;10.198;2022-11-21T10:06:09;1.85;;;0.60;;
58669;SDS011;44439;47.924;10.198;2022-11-21T10:09:13;2.25;;;0.57;;
58669;SDS011;44439;47.924;10.198;2022-11-21T10:12:15;2.95;;;0.52;;
58669;SDS011;44439;47.924;10.198;2022-11-21T10:15:30;1.42;;;0.70;;
58669;SDS011;44439;47.924;10.198;2022-11-21T10:19:06;1.27;;;0.40;;
58669;SDS011;44439;47.924;10.198;2022-11-21T10:25:13;2.13;;;0.82;;
58669;SDS011;44439;47.924;10.198;2022-11-21T10:28:08;1.85;;;0.68;;
58669;SDS011;44439;47.924;10.198;2022-11-21T10:30:59;3.80;;;1.20;;
58669;SDS011;44439;47.924;10.198;2022-11-21T10:33:46;6.35;;;2.33;;
58669;SDS011;44439;47.924;10.198;2022-11-21T10:36:33;1.27;;;0.70;;
58669;SDS011;44439;47.924;10.198;2022-11-21T10:45:34;4.03;;;1.17;;
58669;SDS011;44439;47.924;10.198;2022-11-21T10:48:20;2.70;;;0.85;;
58669;SDS011;44439;47.924;10.198;2022-11-21T10:54:02;3.30;;;1.25;;
58669;SDS011;44439;47.924;10.198;2022-11-21T10:57:21;2.53;;;1.10;;
58669;SDS011;44439;47.924;10.198;2022-11-21T11:03:00;4.43;;;1.50;;
58669;SDS011;44439;47.924;10.198;2022-11-21T11:05:55;1.75;;;0.68;;
58669;SDS011;44439;47.924;10.198;2022-11-21T11:08:50;5.85;;;1.77;;
58669;SDS011;44439;47.924;10.198;2022-11-21T11:11:37;2.65;;;0.70;;
58669;SDS011;44439;47.924;10.198;2022-11-21T11:14:27;2.83;;;0.57;;
58669;SDS011;44439;47.924;10.198;2022-11-21T11:17:15;3.13;;;1.02;;
58669;SDS011;44439;47.924;10.198;2022-11-21T11:20:12;3.58;;;1.67;;
58669;SDS011;44439;47.924;10.198;2022-11-21T11:23:22;4.35;;;1.00;;
58669;SDS011;44439;47.924;10.198;2022-11-21T11:26:20;3.97;;;2.08;;
58669;SDS011;44439;47.924;10.198;2022-11-21T11:29:08;5.57;;;2.50;;
58669;SDS011;44439;47.924;10.198;2022-11-21T11:32:01;3.70;;;1.10;;
58669;SDS011;44439;47.924;10.198;2022-11-21T11:34:59;4.72;;;1.38;;
58669;SDS011;44439;47.924;10.198;2022-11-21T11:37:53;13.18;;;7.03;;
58669;SDS011;44439;47.924;10.198;2022-11-21T11:40:50;15.85;;;9.95;;
58669;SDS011;44439;47.924;10.198;2022-11-21T11:43:49;15.25;;;6.80;;
58669;SDS011;44439;47.924;10.198;2022-11-21T11:47:01;11.38;;;6.65;;
58669;SDS011;44439;47.924;10.198;2022-11-21T11:59:30;3.05;;;0.85;;
58669;SDS011;44439;47.924;10.198;2022-11-21T12:02:22;2.75;;;1.27;;
58669;SDS011;44439;47.924;10.198;2022-11-21T12:05:27;5.57;;;0.82;;
58669;SDS011;44439;47.924;10.198;2022-11-21T12:08:22;3.13;;;1.00;;
58669;SDS011;44439;47.924;10.198;2022-11-21T12:24:01;2.67;;;0.95;;
58669;SDS011;44439;47.924;10.198;2022-11-21T12:26:53;3.20;;;1.13;;
58669;SDS011;44439;47.924;10.198;2022-11-21T12:29:48;3.10;;;0.90;;
58669;SDS011;44439;47.924;10.198;2022-11-21T12:41:59;4.88;;;2.35;;
58669;SDS011;44439;47.924;10.198;2022-11-21T12:48:26;5.60;;;1.13;;
58669;SDS011;44439;47.924;10.198;2022-11-21T12:58:16;5.07;;;1.10;;
58669;SDS011;44439;47.924;10.198;2022-11-21T13:01:36;4.57;;;1.40;;
58669;SDS011;44439;47.924;10.198;2022-11-21T13:04:28;3.58;;;1.30;;
58669;SDS011;44439;47.924;10.198;2022-11-21T13:07:16;4.53;;;1.33;;
58669;SDS011;44439;47.924;10.198;2022-11-21T13:10:03;4.43;;;1.20;;
58669;SDS011;44439;47.924;10.198;2022-11-21T13:12:54;3.60;;;1.17;;
58669;SDS011;44439;47.924;10.198;2022-11-21T13:16:09;2.88;;;1.17;;
58669;SDS011;44439;47.924;10.198;2022-11-21T13:18:59;4.68;;;1.08;;
58669;SDS011;44439;47.924;10.198;2022-11-21T13:21:46;3.13;;;1.05;;
58669;SDS011;44439;47.924;10.198;2022-11-21T13:27:42;5.30;;;1.35;;
58669;SDS011;44439;47.924;10.198;2022-11-21T13:30:29;5.30;;;1.65;;
58669;SDS011;44439;47.924;10.198;2022-11-21T13:39:26;5.60;;;1.25;;
58669;SDS011;44439;47.924;10.198;2022-11-21T13:42:14;4.78;;;1.38;;
58669;SDS011;44439;47.924;10.198;2022-11-21T13:45:36;5.10;;;1.58;;
58669;SDS011;44439;47.924;10.198;2022-11-21T13:54:41;6.70;;;1.70;;
58669;SDS011;44439;47.924;10.198;2022-11-21T13:57:46;7.63;;;1.25;;
58669;SDS011;44439;47.924;10.198;2022-11-21T14:06:36;4.97;;;1.08;;
58669;SDS011;44439;47.924;10.198;2022-11-21T14:09:24;7.93;;;1.27;;
58669;SDS011;44439;47.924;10.198;2022-11-21T14:12:19;12.07;;;1.08;;
58669;SDS011;44439;47.924;10.198;2022-11-21T14:18:21;6.35;;;1.42;;
58669;SDS011;44439;47.924;10.198;2022-11-21T14:21:21;2.58;;;0.90;;
58669;SDS011;44439;47.924;10.198;2022-11-21T14:24:12;2.78;;;0.80;;
58669;SDS011;44439;47.924;10.198;2022-11-21T14:27:01;4.88;;;0.82;;
58669;SDS011;44439;47.924;10.198;2022-11-21T14:29:50;3.75;;;1.20;;
58669;SDS011;44439;47.924;10.198;2022-11-21T14:32:36;4.43;;;1.25;;
58669;SDS011;44439;47.924;10.198;2022-11-21T14:35:22;4.63;;;1.10;;
58669;SDS011;44439;47.924;10.198;2022-11-21T14:38:10;4.03;;;1.08;;
58669;SDS011;44439;47.924;10.198;2022-11-21T14:47:18;3.30;;;0.80;;
58669;SDS011;44439;47.924;10.198;2022-11-21T14:50:03;2.78;;;0.90;;
58669;SDS011;44439;47.924;10.198;2022-11-21T14:52:50;3.00;;;1.10;;
58669;SDS011;44439;47.924;10.198;2022-11-21T14:55:41;3.00;;;0.77;;
58669;SDS011;44439;47.924;10.198;2022-11-21T14:58:33;3.55;;;0.85;;
58669;SDS011;44439;47.924;10.198;2022-11-21T15:01:23;2.78;;;0.73;;
58669;SDS011;44439;47.924;10.198;2022-11-21T15:04:10;2.40;;;0.80;;
58669;SDS011;44439;47.924;10.198;2022-11-21T15:06:58;3.25;;;1.05;;
58669;SDS011;44439;47.924;10.198;2022-11-21T15:09:44;3.13;;;0.90;;
58669;SDS011;44439;47.924;10.198;2022-11-21T15:18:26;4.78;;;1.10;;
58669;SDS011;44439;47.924;10.198;2022-11-21T15:21:13;4.93;;;1.00;;
58669;SDS011;44439;47.924;10.198;2022-11-21T15:24:14;4.82;;;0.82;;
58669;SDS011;44439;47.924;10.198;2022-11-21T15:27:00;3.10;;;0.82;;
58669;SDS011;44439;47.924;10.198;2022-11-21T15:32:58;4.43;;;1.05;;
58669;SDS011;44439;47.924;10.198;2022-11-21T15:38:40;8.10;;;4.20;;
58669;SDS011;44439;47.924;10.198;2022-11-21T15:41:31;28.65;;;13.85;;
58669;SDS011;44439;47.924;10.198;2022-11-21T15:44:18;25.83;;;13.05;;
58669;SDS011;44439;47.924;10.198;2022-11-21T15:47:06;21.38;;;9.65;;
58669;SDS011;44439;47.924;10.198;2022-11-21T15:49:52;23.48;;;11.88;;
58669;SDS011;44439;47.924;10.198;2022-11-21T15:52:44;40.03;;;19.42;;
58669;SDS011;44439;47.924;10.198;2022-11-21T15:55:32;45.53;;;23.15;;
58669;SDS011;44439;47.924;10.198;2022-11-21T15:58:17;22.65;;;11.02;;
58669;SDS011;44439;47.924;10.198;2022-11-21T16:01:03;12.95;;;7.10;;
58669;SDS011;44439;47.924;10.198;2022-11-21T16:03:53;10.07;;;4.78;;
58669;SDS011;44439;47.924;10.198;2022-11-21T16:06:41;9.25;;;4.05;;
58669;SDS011;44439;47.924;10.198;2022-11-21T16:09:27;8.82;;;3.88;;
58669;SDS011;44439;47.924;10.198;2022-11-21T16:12:13;8.32;;;3.40;;
58669;SDS011;44439;47.924;10.198;2022-11-21T16:14:59;7.75;;;3.30;;
58669;SDS011;44439;47.924;10.198;2022-11-21T16:17:45;4.55;;;2.38;;
58669;SDS011;44439;47.924;10.198;2022-11-21T16:20:30;7.03;;;2.10;;
58669;SDS011;44439;47.924;10.198;2022-11-21T16:23:16;5.35;;;2.53;;
58669;SDS011;44439;47.924;10.198;2022-11-21T16:26:02;7.53;;;3.95;;
58669;SDS011;44439;47.924;10.198;2022-11-21T16:28:57;9.85;;;5.15;;
58669;SDS011;44439;47.924;10.198;2022-11-21T16:31:43;27.10;;;18.25;;
58669;SDS011;44439;47.924;10.198;2022-11-21T16:34:29;17.23;;;10.88;;
58669;SDS011;44439;47.924;10.198;2022-11-21T16:37:16;16.27;;;9.13;;
58669;SDS011;44439;47.924;10.198;2022-11-21T16:40:02;13.63;;;6.40;;
58669;SDS011;44439;47.924;10.198;2022-11-21T16:42:48;13.02;;;7.90;;
58669;SDS011;44439;47.924;10.198;2022-11-21T16:45:34;31.10;;;17.20;;
58669;SDS011;44439;47.924;10.198;2022-11-21T16:48:21;13.75;;;9.73;;
58669;SDS011;44439;47.924;10.198;2022-11-21T16:51:15;11.02;;;9.77;;
58669;SDS011;44439;47.924;10.198;2022-11-21T16:54:04;16.23;;;13.98;;
58669;SDS011;44439;47.924;10.198;2022-11-21T16:56:50;17.10;;;11.60;;
58669;SDS011;44439;47.924;10.198;2022-11-21T16:59:35;18.63;;;12.80;;
58669;SDS011;44439;47.924;10.198;2022-11-21T17:02:21;18.15;;;13.10;;
58669;SDS011;44439;47.924;10.198;2022-11-21T17:05:07;15.55;;;9.82;;
58669;SDS011;44439;47.924;10.198;2022-11-21T17:07:53;8.95;;;6.80;;
58669;SDS011;44439;47.924;10.198;2022-11-21T17:10:39;11.48;;;8.02;;
58669;SDS011;44439;47.924;10.198;2022-11-21T17:13:24;22.58;;;17.55;;
58669;SDS011;44439;47.924;10.198;2022-11-21T17:16:11;18.15;;;11.50;;
58669;SDS011;44439;47.924;10.198;2022-11-21T17:18:58;21.35;;;16.20;;
58669;SDS011;44439;47.924;10.198;2022-11-21T17:21:44;19.13;;;13.88;;
58669;SDS011;44439;47.924;10.198;2022-11-21T17:24:30;9.52;;;7.28;;
58669;SDS011;44439;47.924;10.198;2022-11-21T17:27:16;10.88;;;9.18;;
58669;SDS011;44439;47.924;10.198;2022-11-21T17:30:01;9.70;;;7.40;;
58669;SDS011;44439;47.924;10.198;2022-11-21T17:32:47;11.90;;;9.00;;
58669;SDS011;44439;47.924;10.198;2022-11-21T17:35:33;7.93;;;6.30;;
58669;SDS011;44439;47.924;10.198;2022-11-21T17:38:19;13.68;;;8.82;;
58669;SDS011;44439;47.924;10.198;2022-11-21T17:41:05;6.68;;;4.32;;
58669;SDS011;44439;47.924;10.198;2022-11-21T17:43:54;8.30;;;4.03;;
58669;SDS011;44439;47.924;10.198;2022-11-21T17:46:40;9.40;;;6.10;;
58669;SDS011;44439;47.924;10.198;2022-11-21T17:49:26;10.38;;;6.50;;
58669;SDS011;44439;47.924;10.198;2022-11-21T17:52:14;10.38;;;4.78;;
58669;SDS011;44439;47.924;10.198;2022-11-21T17:55:00;8.25;;;5.88;;
58669;SDS011;44439;47.924;10.198;2022-11-21T17:57:45;12.00;;;5.82;;
58669;SDS011;44439;47.924;10.198;2022-11-21T18:00:31;13.80;;;7.88;;
58669;SDS011;44439;47.924;10.198;2022-11-21T18:03:17;9.50;;;5.93;;
58669;SDS011;44439;47.924;10.198;2022-11-21T18:06:04;6.45;;;4.13;;
58669;SDS011;44439;47.924;10.198;2022-11-21T18:08:51;7.88;;;5.03;;
58669;SDS011;44439;47.924;10.198;2022-11-21T18:11:37;8.80;;;4.78;;
58669;SDS011;44439;47.924;10.198;2022-11-21T18:14:23;7.10;;;4.55;;
58669;SDS011;44439;47.924;10.198;2022-11-21T18:17:11;13.73;;;6.32;;
58669;SDS011;44439;47.924;10.198;2022-11-21T18:19:57;8.43;;;6.05;;
58669;SDS011;44439;47.924;10.198;2022-11-21T18:22:42;12.93;;;8.98;;
58669;SDS011;44439;47.924;10.198;2022-11-21T18:25:33;9.30;;;5.85;;